Time;durP1;ratioP1;P1;durP2;ratioP2;P2;SDS_P1;SDS_P2;PMS_P1;PMS_P2;Temp;Humidity;BMP_temperature;BMP_pressure;BME280_temperature;BME280_humidity;BME280_pressure;Samples;Min_cycle;Max_cycle;Signal;HPM_P1;HPM_P2
2021/08/22 00:00:11;;;;;;;6.38;3.13;;;;;;;16.91;76.09;101067.84;5046633;28;20052;-74
2021/08/22 00:02:38;;;;;;;4.15;2.97;;;;;;;16.92;75.80;101072.19;5027562;28;20496;-75
2021/08/22 00:05:06;;;;;;;7.88;3.45;;;;;;;16.93;75.64;101066.78;5053015;28;20053;-74
2021/08/22 00:07:33;;;;;;;8.82;2.80;;;;;;;16.88;75.82;101068.09;5049308;28;20531;-74
2021/08/22 00:10:00;;;;;;;4.78;2.90;;;;;;;16.78;76.19;101062.66;5021743;28;20045;-74
2021/08/22 00:12:28;;;;;;;5.32;2.88;;;;;;;16.76;76.35;101055.78;5014365;28;20049;-73
2021/08/22 00:14:55;;;;;;;4.60;2.53;;;;;;;16.73;76.59;101050.69;5057016;28;20143;-76
2021/08/22 00:17:22;;;;;;;7.40;2.80;;;;;;;16.80;76.33;101049.25;5030359;28;20094;-77
2021/08/22 00:19:50;;;;;;;4.35;3.00;;;;;;;16.72;76.56;101047.19;5035294;28;20119;-73
2021/08/22 00:22:17;;;;;;;3.85;2.53;;;;;;;16.78;76.25;101046.69;5052930;28;20531;-75
2021/08/22 00:24:44;;;;;;;4.72;2.95;;;;;;;16.73;76.15;101040.06;5035389;28;20056;-76
2021/08/22 00:27:11;;;;;;;4.78;2.85;;;;;;;16.71;76.37;101045.47;5055012;28;20468;-74
2021/08/22 00:29:39;;;;;;;7.25;3.38;;;;;;;16.61;76.59;101037.34;5032289;28;20083;-76
2021/08/22 00:32:07;;;;;;;5.55;2.83;;;;;;;16.62;76.46;101044.38;5027203;28;20041;-75
2021/08/22 00:34:34;;;;;;;5.25;3.08;;;;;;;16.48;76.70;101039.28;5015377;28;20036;-74
2021/08/22 00:37:01;;;;;;;6.60;3.28;;;;;;;16.45;77.17;101039.50;5033440;28;20483;-78
2021/08/22 00:39:28;;;;;;;6.57;3.28;;;;;;;16.39;77.68;101039.94;5050093;28;20120;-75
2021/08/22 00:41:56;;;;;;;6.70;3.90;;;;;;;16.46;77.37;101038.53;5013629;28;20127;-75
2021/08/22 00:44:23;;;;;;;7.53;3.28;;;;;;;16.39;77.74;101037.28;5000369;28;20048;-75
2021/08/22 00:47:16;;;;;;;5.07;3.20;;;;;;;16.33;77.84;101037.78;5054284;28;20132;-73
2021/08/22 00:49:43;;;;;;;5.45;3.30;;;;;;;16.25;77.94;101029.53;5050265;28;20055;-74
2021/08/22 00:52:10;;;;;;;3.67;2.72;;;;;;;16.36;77.54;101027.78;5050888;28;20128;-74
2021/08/22 00:54:40;;;;;;;6.20;2.75;;;;;;;16.34;77.69;101031.50;5039176;28;20037;-73
2021/08/22 00:57:09;;;;;;;4.47;2.78;;;;;;;16.34;77.49;101034.16;5051439;28;20080;-76
2021/08/22 00:59:38;;;;;;;4.78;2.83;;;;;;;16.30;77.96;101024.72;5035035;28;20174;-75
2021/08/22 01:02:05;;;;;;;7.88;3.30;;;;;;;16.33;77.51;101027.16;5034467;28;20041;-75
2021/08/22 01:04:47;;;;;;;7.38;3.15;;;;;;;16.38;77.29;101022.31;5030329;28;20098;-75
2021/08/22 01:07:24;;;;;;;6.05;2.90;;;;;;;16.34;77.57;101027.03;5015016;28;20080;-75
2021/08/22 01:09:53;;;;;;;4.03;2.75;;;;;;;16.41;77.31;101035.38;5029813;28;20053;-75
2021/08/22 01:12:34;;;;;;;5.63;3.15;;;;;;;16.39;77.36;101019.56;5052229;28;20094;-74
2021/08/22 01:15:05;;;;;;;3.97;2.90;;;;;;;16.46;77.24;101020.78;5014134;28;20041;-75
2021/08/22 01:17:34;;;;;;;5.90;2.25;;;;;;;16.49;76.88;101013.53;5013113;28;20053;-74
2021/08/22 01:20:10;;;;;;;5.97;3.47;;;;;;;16.50;76.65;101010.75;5043275;28;20495;-75
2021/08/22 01:22:39;;;;;;;3.55;3.08;;;;;;;16.42;77.18;101006.03;5028270;28;20434;-74
2021/08/22 01:25:12;;;;;;;5.45;3.15;;;;;;;16.34;77.69;101007.59;5038219;28;20376;-76
2021/08/22 01:27:41;;;;;;;7.57;3.15;;;;;;;16.29;77.60;101005.28;5006078;28;20052;-75
2021/08/22 01:30:14;;;;;;;5.10;3.35;;;;;;;16.28;78.05;101008.06;5030154;28;20053;-75
2021/08/22 01:32:42;;;;;;;5.93;3.33;;;;;;;16.17;78.39;101008.91;5025755;28;20041;-74
2021/08/22 01:35:13;;;;;;;5.00;3.22;;;;;;;16.15;78.36;101011.66;5056657;28;20064;-76
2021/08/22 01:37:41;;;;;;;5.50;3.50;;;;;;;16.22;78.14;100998.75;5023049;28;20060;-75
2021/08/22 01:40:10;;;;;;;32.70;3.83;;;;;;;16.25;78.12;101006.47;5033603;28;20053;-74
2021/08/22 01:42:39;;;;;;;6.53;3.53;;;;;;;16.28;77.94;100989.47;5032021;28;20382;-74
2021/08/22 01:45:12;;;;;;;7.53;3.15;;;;;;;16.26;77.94;100986.09;5031169;28;20114;-74
2021/08/22 01:47:41;;;;;;;5.43;3.25;;;;;;;16.27;78.07;100990.44;5005048;28;20314;-73
2021/08/22 01:50:10;;;;;;;5.43;3.63;;;;;;;16.33;77.50;100982.81;5052764;28;20500;-74
2021/08/22 01:52:38;;;;;;;8.30;3.35;;;;;;;16.26;77.90;100976.31;5006909;28;20510;-75
2021/08/22 01:55:07;;;;;;;4.80;3.10;;;;;;;16.28;77.96;100976.19;5005667;28;20055;-75
2021/08/22 01:57:38;;;;;;;6.00;3.13;;;;;;;16.30;77.85;100976.91;5041228;28;20133;-74
2021/08/22 02:00:08;;;;;;;4.03;2.75;;;;;;;16.32;77.94;100972.31;5052220;28;20044;-74
2021/08/22 02:02:37;;;;;;;6.40;3.25;;;;;;;16.43;77.25;100970.50;5026630;28;20045;-75
2021/08/22 02:05:06;;;;;;;6.45;3.63;;;;;;;16.40;77.17;100962.81;5037499;28;20087;-74
2021/08/22 02:07:35;;;;;;;4.40;3.08;;;;;;;16.45;76.81;100962.44;5027410;28;20166;-75
2021/08/22 02:10:06;;;;;;;4.90;3.00;;;;;;;16.41;77.24;100951.19;5032606;28;20045;-74
2021/08/22 02:12:34;;;;;;;4.18;2.38;;;;;;;16.41;77.09;100950.34;5044848;28;20498;-74
2021/08/22 02:15:05;;;;;;;4.18;2.85;;;;;;;16.38;77.33;100953.25;5050885;28;20072;-74
2021/08/22 02:17:41;;;;;;;5.43;3.00;;;;;;;16.38;77.21;100947.94;5011666;28;20040;-75
2021/08/22 02:20:08;;;;;;;6.07;3.00;;;;;;;16.35;77.33;100953.50;5023102;28;20145;-74
2021/08/22 02:22:36;;;;;;;4.95;3.00;;;;;;;16.32;77.19;100943.94;5028961;28;20264;-75
2021/08/22 02:25:05;;;;;;;6.15;2.88;;;;;;;16.34;77.22;100936.69;5049515;28;20048;-75
2021/08/22 02:27:32;;;;;;;9.05;3.17;;;;;;;16.34;77.20;100933.19;5025597;28;20139;-75
2021/08/22 02:29:59;;;;;;;6.65;2.90;;;;;;;16.28;77.42;100941.66;5047241;28;20052;-74
2021/08/22 02:32:27;;;;;;;6.30;3.53;;;;;;;16.34;76.87;100941.16;5020133;28;20128;-75
2021/08/22 02:34:54;;;;;;;4.28;3.58;;;;;;;16.34;76.82;100944.66;5054124;28;20127;-75
2021/08/22 02:37:21;;;;;;;6.70;3.67;;;;;;;16.39;76.94;100939.84;5029794;28;20057;-75
2021/08/22 02:39:49;;;;;;;5.10;3.20;;;;;;;16.37;76.80;100930.31;5012564;28;20048;-75
2021/08/22 02:42:16;;;;;;;4.78;3.20;;;;;;;16.25;77.38;100936.56;5027522;28;20064;-75
2021/08/22 02:44:44;;;;;;;7.50;3.28;;;;;;;16.25;77.42;100934.75;5056720;28;20143;-74
2021/08/22 02:47:13;;;;;;;5.72;2.92;;;;;;;16.23;77.63;100938.50;5041478;28;20447;-75
2021/08/22 02:49:41;;;;;;;7.20;3.10;;;;;;;16.44;76.58;100931.53;5052821;28;20102;-73
2021/08/22 02:52:09;;;;;;;6.22;3.30;;;;;;;16.35;76.85;100924.28;5029791;28;20063;-75
2021/08/22 02:54:36;;;;;;;5.82;3.03;;;;;;;16.27;77.11;100927.53;5020232;28;20072;-73
2021/08/22 02:57:04;;;;;;;4.95;2.70;;;;;;;16.33;77.01;100931.50;5011860;28;20429;-74
2021/08/22 02:59:31;;;;;;;8.95;3.00;;;;;;;16.30;76.76;100932.59;5021499;28;20115;-75
2021/08/22 03:01:58;;;;;;;5.93;3.30;;;;;;;16.34;76.92;100934.03;5050410;28;20076;-74
2021/08/22 03:04:26;;;;;;;6.25;2.95;;;;;;;16.36;76.75;100934.78;5035643;28;20536;-74
2021/08/22 03:06:53;;;;;;;5.70;3.40;;;;;;;16.29;77.18;100930.88;5028536;28;20448;-74
2021/08/22 03:09:20;;;;;;;4.85;3.30;;;;;;;16.34;76.70;100928.72;5045812;28;20452;-73
2021/08/22 03:11:49;;;;;;;4.43;3.40;;;;;;;16.27;76.75;100934.66;5027990;28;20143;-75
2021/08/22 03:14:16;;;;;;;5.05;3.30;;;;;;;16.35;76.85;100932.25;5048823;28;20057;-75
2021/08/22 03:16:43;;;;;;;5.18;3.72;;;;;;;16.28;77.07;100928.38;5033950;28;20307;-74
2021/08/22 03:19:10;;;;;;;7.95;4.00;;;;;;;16.27;77.24;100938.16;5011686;28;20037;-75
2021/08/22 03:21:41;;;;;;;6.63;3.40;;;;;;;16.25;77.04;100928.59;5028870;28;20044;-75
2021/08/22 03:24:08;;;;;;;5.55;2.88;;;;;;;16.26;77.21;100936.47;5032213;28;20057;-74
2021/08/22 03:26:38;;;;;;;4.90;2.92;;;;;;;16.22;77.34;100944.78;5029341;28;20057;-76
2021/08/22 03:29:06;;;;;;;5.75;3.67;;;;;;;16.24;77.33;100940.19;5031959;28;20040;-75
2021/08/22 03:31:33;;;;;;;6.45;3.10;;;;;;;16.13;77.88;100943.69;5036950;28;20103;-75
2021/08/22 03:34:00;;;;;;;4.55;3.05;;;;;;;16.13;77.50;100944.53;5001245;28;20395;-74
2021/08/22 03:36:28;;;;;;;4.93;3.10;;;;;;;16.03;78.17;100948.88;5043861;28;20065;-75
2021/08/22 03:38:55;;;;;;;7.00;3.20;;;;;;;16.12;77.69;100937.53;5030693;28;20491;-74
2021/08/22 03:41:22;;;;;;;5.45;3.22;;;;;;;16.17;77.46;100947.81;5034403;28;20151;-77
2021/08/22 03:43:49;;;;;;;3.88;2.78;;;;;;;15.97;79.05;100941.34;5026127;28;20389;-74
2021/08/22 03:46:16;;;;;;;6.82;3.60;;;;;;;16.06;78.13;100945.13;5052439;28;20361;-74
2021/08/22 03:48:44;;;;;;;4.47;2.97;;;;;;;16.08;77.97;100938.72;5044060;28;20037;-74
2021/08/22 03:51:11;;;;;;;5.22;3.72;;;;;;;15.93;78.59;100946.03;5049017;28;20371;-75
2021/08/22 03:53:38;;;;;;;6.72;3.25;;;;;;;16.00;78.16;100937.63;5030805;28;20094;-74
2021/08/22 03:56:05;;;;;;;4.78;2.97;;;;;;;16.08;77.43;100936.06;5024087;28;20190;-74
2021/08/22 03:58:32;;;;;;;5.00;3.33;;;;;;;16.04;77.69;100941.75;5029522;28;20037;-74
2021/08/22 04:01:00;;;;;;;3.92;3.15;;;;;;;15.94;77.82;100945.09;5014774;28;20373;-74
2021/08/22 04:03:29;;;;;;;5.65;2.85;;;;;;;16.08;77.32;100936.06;5026197;28;20060;-74
2021/08/22 04:05:56;;;;;;;8.07;3.05;;;;;;;16.00;77.69;100932.31;5045267;28;20072;-75
2021/08/22 04:08:25;;;;;;;6.80;3.00;;;;;;;16.02;77.38;100931.22;5049313;28;20057;-74
2021/08/22 04:10:52;;;;;;;7.80;3.63;;;;;;;15.94;77.17;100931.00;5033481;28;20124;-74
2021/08/22 04:13:20;;;;;;;3.65;2.65;;;;;;;15.97;76.96;100927.22;5031162;28;20126;-75
2021/08/22 04:15:47;;;;;;;3.90;2.80;;;;;;;16.05;76.50;100925.69;5050404;28;20120;-74
2021/08/22 04:18:16;;;;;;;5.90;2.78;;;;;;;16.13;75.89;100920.63;5026414;28;20521;-74
2021/08/22 04:20:44;;;;;;;5.53;2.88;;;;;;;16.10;75.56;100920.84;5017688;28;20416;-75
2021/08/22 04:23:11;;;;;;;3.42;2.47;;;;;;;16.11;75.37;100919.03;5016794;28;20056;-74
2021/08/22 04:25:40;;;;;;;5.35;3.33;;;;;;;16.19;74.62;100927.28;5040472;28;20140;-75
2021/08/22 04:28:07;;;;;;;6.05;3.67;;;;;;;16.18;74.87;100921.13;5019678;28;20072;-74
2021/08/22 04:30:35;;;;;;;4.70;2.95;;;;;;;16.28;74.15;100918.59;5032505;28;20037;-74
2021/08/22 04:33:02;;;;;;;4.30;3.03;;;;;;;16.33;73.71;100915.56;5012780;28;20075;-74
2021/08/22 04:35:30;;;;;;;4.82;2.72;;;;;;;16.31;73.18;100920.16;5048994;28;20566;-75
2021/08/22 04:37:57;;;;;;;3.38;2.63;;;;;;;16.38;72.89;100911.56;5042902;28;20394;-75
2021/08/22 04:40:25;;;;;;;4.65;3.05;;;;;;;16.40;72.80;100907.00;5053377;28;20135;-75
2021/08/22 04:42:52;;;;;;;4.32;2.33;;;;;;;16.47;72.64;100907.34;5029051;28;20045;-74
2021/08/22 04:45:21;;;;;;;4.13;2.47;;;;;;;16.43;72.78;100897.91;5032108;28;20076;-75
2021/08/22 04:47:48;;;;;;;6.78;2.58;;;;;;;16.56;71.64;100892.47;5048446;28;20096;-76
2021/08/22 04:50:16;;;;;;;6.65;3.30;;;;;;;16.52;72.36;100893.69;5034856;28;20181;-75
2021/08/22 04:52:43;;;;;;;5.43;2.45;;;;;;;16.63;71.40;100894.53;5046879;28;20049;-74
2021/08/22 04:55:10;;;;;;;4.22;2.92;;;;;;;16.77;70.69;100896.13;5036975;28;20132;-74
2021/08/22 04:57:37;;;;;;;5.88;2.80;;;;;;;16.79;70.50;100888.84;5053806;28;20049;-73
2021/08/22 05:00:05;;;;;;;4.22;2.42;;;;;;;16.95;70.07;100885.81;5022484;28;20134;-75
2021/08/22 05:02:32;;;;;;;5.57;2.63;;;;;;;16.96;69.28;100877.69;5008950;28;20117;-74
2021/08/22 05:05:00;;;;;;;3.38;2.55;;;;;;;17.09;68.80;100877.53;5052574;28;20041;-74
2021/08/22 05:07:27;;;;;;;3.78;2.67;;;;;;;17.07;69.10;100883.97;5030113;28;20135;-75
2021/08/22 05:09:54;;;;;;;5.72;2.70;;;;;;;17.19;68.42;100878.47;5034008;28;20052;-75
2021/08/22 05:12:22;;;;;;;5.22;3.20;;;;;;;17.26;67.80;100878.81;5015944;28;20068;-75
2021/08/22 05:14:49;;;;;;;8.95;2.75;;;;;;;17.15;68.20;100878.84;5021076;28;20053;-75
2021/08/22 05:17:16;;;;;;;4.90;2.42;;;;;;;17.15;68.47;100878.84;5030543;28;20169;-77
2021/08/22 05:19:44;;;;;;;5.82;2.83;;;;;;;17.14;68.09;100880.66;5047654;28;20515;-74
2021/08/22 05:22:11;;;;;;;6.25;2.90;;;;;;;17.13;67.96;100881.63;5033802;28;20202;-76
2021/08/22 05:24:38;;;;;;;6.18;2.50;;;;;;;17.32;67.54;100888.09;5028386;28;20519;-75
2021/08/22 05:27:06;;;;;;;4.38;2.83;;;;;;;17.32;67.57;100896.91;5054850;28;20040;-75
2021/08/22 05:29:33;;;;;;;3.33;2.47;;;;;;;17.24;67.37;100883.41;5013597;28;20565;-74
2021/08/22 05:32:02;;;;;;;6.70;2.60;;;;;;;17.35;66.79;100895.84;5050640;28;20467;-75
2021/08/22 05:34:29;;;;;;;3.35;2.38;;;;;;;17.44;66.46;100884.41;5032503;28;20083;-75
2021/08/22 05:36:56;;;;;;;4.95;2.42;;;;;;;17.78;65.47;100885.09;5016017;28;20160;-75
2021/08/22 05:39:23;;;;;;;4.25;2.22;;;;;;;17.96;64.20;100886.19;5032472;28;20049;-74
2021/08/22 05:41:50;;;;;;;5.20;2.58;;;;;;;17.93;64.47;100889.13;5036112;28;20080;-75
2021/08/22 05:44:20;;;;;;;4.55;2.70;;;;;;;18.07;63.38;100885.28;5033253;28;20124;-75
2021/08/22 05:46:48;;;;;;;4.97;2.60;;;;;;;18.28;63.02;100881.72;5038157;28;20045;-74
2021/08/22 05:49:15;;;;;;;3.58;2.50;;;;;;;18.14;63.05;100875.75;5032759;28;20087;-74
2021/08/22 05:51:44;;;;;;;6.20;2.58;;;;;;;18.48;62.10;100886.16;5038367;28;20084;-75
2021/08/22 05:54:12;;;;;;;3.70;1.80;;;;;;;18.53;61.52;100885.75;5046823;28;20124;-75
2021/08/22 05:56:39;;;;;;;5.43;2.90;;;;;;;18.62;61.05;100888.44;5033483;28;20790;-76
2021/08/22 05:59:06;;;;;;;6.40;2.50;;;;;;;18.96;59.87;100880.97;5040936;28;20111;-75
2021/08/22 06:01:33;;;;;;;6.20;2.03;;;;;;;18.73;60.81;100876.84;5048921;28;20173;-79
2021/08/22 06:04:01;;;;;;;3.05;2.08;;;;;;;18.57;60.73;100879.16;5011179;28;20667;-74
2021/08/22 06:06:29;;;;;;;3.58;2.20;;;;;;;18.35;61.74;100875.72;5053613;28;20083;-75
2021/08/22 06:08:56;;;;;;;2.80;2.13;;;;;;;18.15;62.18;100882.81;5014991;28;20061;-74
2021/08/22 06:11:23;;;;;;;3.08;2.22;;;;;;;18.27;61.85;100874.69;5026030;28;20047;-76
2021/08/22 06:13:50;;;;;;;6.15;2.25;;;;;;;18.29;61.43;100875.44;5016932;28;20049;-75
2021/08/22 06:16:17;;;;;;;2.50;2.00;;;;;;;18.37;60.98;100881.78;5033806;28;20068;-75
2021/08/22 06:18:45;;;;;;;3.80;2.22;;;;;;;18.42;61.11;100873.38;5050696;28;20418;-76
2021/08/22 06:21:12;;;;;;;4.88;2.78;;;;;;;18.95;59.85;100884.59;5034775;28;20454;-75
2021/08/22 06:23:39;;;;;;;2.40;1.83;;;;;;;19.62;57.78;100882.97;5049931;28;20044;-75
2021/08/22 06:26:06;;;;;;;4.82;2.10;;;;;;;20.23;55.00;100871.84;5001379;28;20155;-75
2021/08/22 06:28:34;;;;;;;4.30;1.67;;;;;;;21.32;52.14;100863.91;5043781;28;20043;-76
2021/08/22 06:31:01;;;;;;;2.45;1.83;;;;;;;22.06;49.69;100872.44;5045848;28;20136;-73
2021/08/22 06:33:29;;;;;;;3.53;2.10;;;;;;;21.72;49.90;100878.63;5048915;28;20467;-74
2021/08/22 06:36:00;;;;;;;2.92;2.10;;;;;;;20.70;52.48;100878.97;5033733;28;20143;-74
2021/08/22 06:38:28;;;;;;;3.35;2.08;;;;;;;20.47;53.29;100882.03;5035431;28;20049;-75
2021/08/22 06:40:55;;;;;;;3.22;1.80;;;;;;;20.06;53.88;100885.13;5052726;28;20187;-74
2021/08/22 06:43:22;;;;;;;4.85;2.75;;;;;;;19.93;54.68;100872.94;5037207;28;20119;-76
2021/08/22 06:45:50;;;;;;;7.57;2.60;;;;;;;19.79;55.41;100873.38;5045948;28;20582;-74
2021/08/22 06:48:17;;;;;;;2.88;2.08;;;;;;;20.44;53.67;100876.09;5046863;28;20123;-76
2021/08/22 06:50:44;;;;;;;2.72;1.90;;;;;;;20.12;53.74;100871.19;5053693;28;20117;-74
2021/08/22 06:53:12;;;;;;;2.90;2.03;;;;;;;20.39;53.50;100865.00;5033425;28;20479;-75
2021/08/22 06:55:42;;;;;;;6.45;2.30;;;;;;;21.36;50.95;100859.09;5045271;28;20167;-75
2021/08/22 06:58:10;;;;;;;3.47;2.40;;;;;;;21.92;49.98;100863.16;5031408;28;20306;-75
2021/08/22 07:00:37;;;;;;;2.58;1.98;;;;;;;21.96;49.21;100864.53;5048934;28;20497;-76
2021/08/22 07:03:04;;;;;;;2.85;1.67;;;;;;;22.86;46.83;100872.97;5028976;28;20053;-75
2021/08/22 07:05:32;;;;;;;5.65;2.22;;;;;;;23.52;44.98;100877.47;5034493;28;20369;-74
2021/08/22 07:07:59;;;;;;;2.78;1.80;;;;;;;23.70;45.13;100871.94;5017510;28;20459;-75
2021/08/22 07:10:26;;;;;;;2.63;2.00;;;;;;;23.23;45.28;100867.19;5030378;28;20140;-75
2021/08/22 07:12:53;;;;;;;3.85;2.30;;;;;;;22.99;46.87;100854.59;5016853;28;20104;-74
2021/08/22 07:15:21;;;;;;;2.85;1.98;;;;;;;23.65;44.67;100858.16;5049640;28;20052;-76
2021/08/22 07:17:49;;;;;;;3.28;2.00;;;;;;;22.61;46.96;100856.00;5026013;28;20064;-75
2021/08/22 07:20:17;;;;;;;3.55;1.67;;;;;;;22.36;47.79;100852.38;4995947;28;20137;-74
2021/08/22 07:22:44;;;;;;;4.43;2.05;;;;;;;21.98;48.51;100858.03;5040666;28;20076;-75
2021/08/22 07:25:11;;;;;;;3.35;1.77;;;;;;;21.65;49.54;100842.72;4996917;28;20067;-74
2021/08/22 07:27:39;;;;;;;3.00;1.85;;;;;;;21.45;50.14;100850.13;5029017;28;20091;-75
2021/08/22 07:30:06;;;;;;;3.97;2.05;;;;;;;21.52;50.38;100848.47;5054600;28;20480;-75
2021/08/22 07:32:33;;;;;;;5.95;1.90;;;;;;;21.11;51.61;100842.75;5054868;28;20045;-76
2021/08/22 07:35:00;;;;;;;3.28;2.20;;;;;;;21.14;51.16;100838.94;5042570;28;20043;-74
2021/08/22 07:37:28;;;;;;;3.05;1.75;;;;;;;21.83;50.01;100834.63;5036735;28;20336;-74
2021/08/22 07:39:55;;;;;;;4.57;2.00;;;;;;;23.40;45.97;100846.56;5032340;28;20053;-75
2021/08/22 07:42:22;;;;;;;5.32;2.17;;;;;;;22.89;46.94;100844.00;5040254;28;20171;-74
2021/08/22 07:44:49;;;;;;;3.25;1.77;;;;;;;22.35;47.71;100840.78;5014609;28;20094;-76
2021/08/22 07:47:17;;;;;;;3.80;2.08;;;;;;;23.22;46.45;100839.50;5030462;28;20122;-75
2021/08/22 07:49:44;;;;;;;5.22;2.08;;;;;;;23.78;44.54;100841.53;5022391;28;20033;-76
2021/08/22 07:52:11;;;;;;;6.47;2.10;;;;;;;23.74;44.86;100846.41;5049951;28;20246;-75
2021/08/22 07:54:38;;;;;;;4.75;2.10;;;;;;;22.77;47.01;100850.66;5021951;28;20171;-75
2021/08/22 07:57:06;;;;;;;3.97;2.47;;;;;;;21.82;49.31;100849.88;5052221;28;20110;-76
2021/08/22 07:59:33;;;;;;;3.65;2.40;;;;;;;21.31;50.80;100848.84;5034630;28;20104;-74
2021/08/22 08:02:00;;;;;;;3.97;2.55;;;;;;;21.18;51.64;100851.03;5062565;28;20060;-75
2021/08/22 08:04:28;;;;;;;3.65;1.90;;;;;;;21.28;51.50;100850.94;5061043;28;20052;-75
2021/08/22 08:06:55;;;;;;;4.60;2.13;;;;;;;21.32;51.85;100850.50;5042016;28;20055;-77
2021/08/22 08:09:22;;;;;;;3.75;2.38;;;;;;;20.90;53.09;100848.44;4998841;28;20049;-78
2021/08/22 08:11:49;;;;;;;3.60;2.10;;;;;;;20.81;53.62;100848.50;5049170;28;20090;-75
2021/08/22 08:14:17;;;;;;;6.60;2.75;;;;;;;20.77;53.76;100839.09;5029770;28;20049;-74
2021/08/22 08:16:44;;;;;;;4.10;2.22;;;;;;;20.85;53.57;100837.34;5031525;28;20164;-73
2021/08/22 08:19:11;;;;;;;5.82;3.05;;;;;;;20.91;53.45;100841.22;5051580;28;20090;-75
2021/08/22 08:21:38;;;;;;;3.92;2.95;;;;;;;20.92;53.75;100835.72;5031693;28;20107;-75
2021/08/22 08:24:06;;;;;;;4.20;2.50;;;;;;;21.30;53.00;100840.91;5031352;28;20051;-75
2021/08/22 08:26:33;;;;;;;3.33;2.65;;;;;;;21.51;52.30;100838.75;5034265;28;20133;-74
2021/08/22 08:29:00;;;;;;;3.78;2.72;;;;;;;21.46;52.53;100843.75;5036944;28;20041;-77
2021/08/22 08:31:27;;;;;;;6.47;3.17;;;;;;;21.45;52.70;100834.03;5035172;28;20053;-75
2021/08/22 08:33:55;;;;;;;5.50;3.10;;;;;;;21.35;52.44;100831.47;5039623;28;20860;-75
2021/08/22 08:36:22;;;;;;;10.63;3.22;;;;;;;21.84;51.80;100838.97;5057057;28;20067;-75
2021/08/22 08:38:49;;;;;;;5.65;2.58;;;;;;;22.00;51.39;100839.09;5015119;28;20049;-76
2021/08/22 08:41:17;;;;;;;4.13;3.00;;;;;;;21.86;52.28;100845.03;5033841;28;20153;-76
2021/08/22 08:43:46;;;;;;;6.07;2.83;;;;;;;21.77;52.24;100833.44;5048400;28;20155;-75
2021/08/22 08:46:39;;;;;;;6.80;2.47;;;;;;;21.35;53.42;100835.97;5002458;28;20135;-75
2021/08/22 08:49:26;;;;;;;6.97;3.20;;;;;;;21.99;52.45;100845.44;5006124;28;20127;-75
2021/08/22 08:52:18;;;;;;;7.63;3.50;;;;;;;22.06;51.57;100840.28;5054516;28;20440;-75
2021/08/22 08:55:16;;;;;;;4.90;3.33;;;;;;;21.92;52.16;100837.19;5035191;28;20436;-75
2021/08/22 08:57:43;;;;;;;3.45;2.90;;;;;;;22.27;52.33;100837.25;5024888;28;20041;-77
2021/08/22 09:00:18;;;;;;;4.85;2.92;;;;;;;22.33;51.29;100847.31;5017602;28;20044;-76
2021/08/22 09:03:02;;;;;;;;;;;;;;;22.53;50.53;100837.19;5020153;28;20041;-75
2021/08/22 09:06:05;;;;;;;6.30;3.25;;;;;;;22.76;50.66;100832.88;5032408;28;19920;-74
2021/08/22 09:09:05;;;;;;;6.57;2.95;;;;;;;22.62;51.06;100822.78;5050412;28;20048;-74
2021/08/22 09:12:10;;;;;;;5.03;3.40;;;;;;;22.23;51.74;100829.50;5051606;28;20108;-73
2021/08/22 09:15:01;;;;;;;7.97;3.17;;;;;;;22.06;52.54;100830.38;5014804;28;20360;-74
2021/08/22 09:18:06;;;;;;;4.90;2.97;;;;;;;22.23;52.30;100831.34;5053295;28;20456;-75
2021/08/22 09:21:24;;;;;;;6.30;3.38;;;;;;;22.19;52.60;100820.09;5052775;28;20547;-75
2021/08/22 09:24:29;;;;;;;2.83;2.35;;;;;;;21.98;52.34;100828.53;5016729;28;20051;-74
2021/08/22 09:27:34;;;;;;;4.28;2.95;;;;;;;21.98;52.32;100825.00;5026226;28;20098;-75
2021/08/22 09:30:38;;;;;;;10.13;3.20;;;;;;;22.31;52.11;100817.97;5055247;28;20053;-75
2021/08/22 09:33:30;;;;;;;9.80;3.67;;;;;;;22.50;51.56;100820.38;5052045;28;20127;-75
2021/08/22 09:36:25;;;;;;;5.53;2.97;;;;;;;22.39;51.76;100822.53;5048086;28;20140;-75
2021/08/22 09:39:27;;;;;;;3.93;2.93;;;;;;;22.77;50.80;100825.66;5036011;28;20119;-74
2021/08/22 09:42:31;;;;;;;3.42;2.55;;;;;;;23.19;49.68;100831.78;5030034;28;20507;-74
2021/08/22 09:45:23;;;;;;;4.18;3.00;;;;;;;23.46;48.58;100827.94;5048173;28;20143;-76
2021/08/22 09:48:27;;;;;;;4.63;2.83;;;;;;;23.40;48.33;100835.81;5045924;28;20098;-74
2021/08/22 09:51:10;;;;;;;6.50;3.15;;;;;;;23.45;49.08;100828.06;5052563;28;20069;-75
2021/08/22 09:54:11;;;;;;;4.85;2.88;;;;;;;23.72;48.22;100829.59;5034483;28;20140;-76
2021/08/22 09:57:16;;;;;;;3.97;2.70;;;;;;;23.69;48.56;100828.09;5050036;28;20239;-75
2021/08/22 10:00:20;;;;;;;8.90;3.13;;;;;;;23.77;48.26;100826.38;5059932;28;20059;-75
2021/08/22 10:02:56;;;;;;;4.05;2.38;;;;;;;24.15;47.68;100811.31;5030084;28;20164;-75
2021/08/22 10:05:50;;;;;;;6.72;3.10;;;;;;;24.29;47.41;100825.88;5028969;28;20048;-74
2021/08/22 10:08:29;;;;;;;3.80;2.72;;;;;;;24.38;47.08;100816.78;5048141;28;20048;-73
2021/08/22 10:11:00;;;;;;;6.00;3.35;;;;;;;24.03;48.05;100820.78;5049391;28;20053;-74
2021/08/22 10:13:31;;;;;;;8.48;4.47;;;;;;;23.82;48.38;100829.38;5015030;28;20410;-74
2021/08/22 10:15:59;;;;;;;7.15;3.75;;;;;;;23.44;49.12;100823.72;5018789;28;20472;-75
2021/08/22 10:18:26;;;;;;;3.92;3.17;;;;;;;23.67;49.11;100830.09;5038826;28;20064;-75
2021/08/22 10:21:02;;;;;;;5.07;3.60;;;;;;;23.43;49.63;100830.09;5036296;28;20073;-75
2021/08/22 10:23:38;;;;;;;4.30;3.53;;;;;;;23.32;49.21;100833.13;5037852;28;20087;-74
2021/08/22 10:26:06;;;;;;;5.88;3.45;;;;;;;23.06;50.18;100834.13;5049605;28;20053;-74
2021/08/22 10:28:47;;;;;;;6.20;4.10;;;;;;;23.09;50.26;100844.53;5030579;28;20108;-75
2021/08/22 10:31:54;;;;;;;4.55;3.83;;;;;;;23.16;49.86;100834.81;5058034;28;20045;-74
2021/08/22 10:34:25;;;;;;;6.15;3.35;;;;;;;23.20;50.04;100838.84;5036556;28;20115;-76
2021/08/22 10:36:53;;;;;;;5.15;3.42;;;;;;;23.22;50.05;100844.03;5038593;28;20136;-74
2021/08/22 10:39:26;;;;;;;6.50;3.70;;;;;;;23.06;50.46;100828.75;5032159;28;20041;-74
2021/08/22 10:41:58;;;;;;;4.07;3.20;;;;;;;23.03;50.59;100833.63;5048785;28;20177;-74
2021/08/22 10:44:34;;;;;;;5.35;3.03;;;;;;;22.99;50.36;100836.63;5040079;28;20052;-73
2021/08/22 10:47:27;;;;;;;6.30;3.78;;;;;;;22.99;50.66;100835.78;5046758;28;20090;-76
2021/08/22 10:49:55;;;;;;;7.05;3.78;;;;;;;23.04;50.23;100833.44;4991516;28;20127;-75
2021/08/22 10:52:35;;;;;;;5.70;3.92;;;;;;;23.09;50.98;100831.09;5050116;28;20095;-77
2021/08/22 10:55:14;;;;;;;4.43;3.47;;;;;;;23.01;50.54;100836.47;5029141;28;20059;-75
2021/08/22 10:57:44;;;;;;;6.32;3.53;;;;;;;22.75;51.85;100833.88;5049780;28;20044;-74
2021/08/22 11:00:38;;;;;;;4.57;3.80;;;;;;;22.71;51.96;100832.53;5060818;28;20052;-74
2021/08/22 11:03:16;;;;;;;5.20;3.35;;;;;;;22.77;51.62;100823.81;5000546;28;20118;-77
2021/08/22 11:05:45;;;;;;;7.88;3.90;;;;;;;22.77;51.35;100831.84;5056290;28;20111;-74
2021/08/22 11:08:16;;;;;;;4.40;3.58;;;;;;;22.70;52.49;100837.06;5037044;28;20068;-74
2021/08/22 11:11:00;;;;;;;9.05;4.28;;;;;;;22.70;51.77;100844.28;5052303;28;20098;-76
2021/08/22 11:13:32;;;;;;;5.60;3.95;;;;;;;22.29;53.66;100848.63;5038888;28;20048;-74
2021/08/22 11:16:05;;;;;;;5.30;4.07;;;;;;;21.85;55.91;100849.56;5020743;28;20136;-75
2021/08/22 11:18:37;;;;;;;6.95;4.55;;;;;;;21.63;57.73;100847.41;5030579;28;20266;-74
2021/08/22 11:21:06;;;;;;;10.48;4.68;;;;;;;21.24;60.35;100848.56;5017174;28;20090;-75
2021/08/22 11:23:40;;;;;;;6.78;3.95;;;;;;;20.86;61.04;100852.41;5039972;28;20110;-74
2021/08/22 11:26:09;;;;;;;6.25;4.90;;;;;;;20.00;65.88;100849.16;5048179;28;20120;-75
2021/08/22 11:28:37;;;;;;;7.55;5.60;;;;;;;19.83;77.07;100852.56;5026156;28;20082;-76
2021/08/22 11:31:12;;;;;;;9.25;5.32;;;;;;;19.38;73.70;100851.34;5036308;28;20128;-74
2021/08/22 11:33:39;;;;;;;11.32;6.45;;;;;;;19.01;85.56;100847.72;5053847;28;20099;-74
2021/08/22 11:36:07;;;;;;;10.73;6.30;;;;;;;18.63;87.42;100842.13;5057339;28;20066;-73
2021/08/22 11:38:34;;;;;;;10.40;6.05;;;;;;;18.53;82.64;100841.25;5023192;28;20044;-75
2021/08/22 11:41:03;;;;;;;16.35;7.20;;;;;;;18.25;87.60;100842.88;5059760;28;20063;-74
2021/08/22 11:43:31;;;;;;;11.05;6.40;;;;;;;17.95;87.83;100844.53;5043359;28;20040;-75